Time;durP1;ratioP1;P1;durP2;ratioP2;P2;SDS_P1;SDS_P2;PMS_P1;PMS_P2;Temp;Humidity;BMP_temperature;BMP_pressure;BME280_temperature;BME280_humidity;BME280_pressure;Samples;Min_cycle;Max_cycle;Signal;HPM_P1;HPM_P2
2023/12/01 00:00:03;;;;;;;;;;;;;;;20.11;38.37;99882.00;2069062;28;2194;-66
2023/12/01 00:01:04;;;;;;;;;;;;;;;20.11;38.38;99884.13;2069040;28;5846;-66
2023/12/01 00:02:05;;;;;;;;;;;;;;;20.11;38.41;99889.88;2069058;28;2124;-67
2023/12/01 00:03:07;;;;;;;;;;;;;;;20.11;38.36;99884.88;2069120;28;2093;-67
2023/12/01 00:04:09;;;;;;;;;;;;;;;20.11;38.33;99875.53;2068299;28;2061;-67
2023/12/01 00:05:10;;;;;;;;;;;;;;;20.11;38.33;99884.88;2069358;28;2010;-67
2023/12/01 00:06:12;;;;;;;;;;;;;;;20.11;38.34;99887.00;2070664;28;2145;-67
2023/12/01 00:07:13;;;;;;;;;;;;;;;20.10;38.32;99886.28;2070480;28;2030;-67
2023/12/01 00:08:14;;;;;;;;;;;;;;;20.09;38.51;99868.31;2068664;28;2255;-67
2023/12/01 00:09:16;;;;;;;;;;;;;;;20.08;38.46;99881.19;2070636;28;2359;-67
2023/12/01 00:10:17;;;;;;;;;;;;;;;20.09;38.32;99888.44;2069755;28;2075;-67
2023/12/01 00:11:19;;;;;;;;;;;;;;;20.08;38.46;99889.81;2069907;28;2412;-67
2023/12/01 00:12:20;;;;;;;;;;;;;;;20.09;38.49;99890.56;2068438;28;2363;-67
2023/12/01 00:13:22;;;;;;;;;;;;;;;20.08;38.40;99894.84;2069030;28;2245;-67
2023/12/01 00:14:23;;;;;;;;;;;;;;;20.08;38.46;99889.81;2067900;28;2300;-67
2023/12/01 00:15:24;;;;;;;;;;;;;;;20.08;38.53;99892.69;2068658;28;2152;-67
2023/12/01 00:16:26;;;;;;;;;;;;;;;20.08;38.51;99884.06;2069454;28;2391;-67
2023/12/01 00:17:28;;;;;;;;;;;;;;;20.08;38.36;99883.34;2068113;28;2053;-67
2023/12/01 00:18:29;;;;;;;;;;;;;;;20.06;38.42;99884.00;2068497;28;2026;-67
2023/12/01 00:19:31;;;;;;;;;;;;;;;20.08;38.28;99881.19;2069977;28;2041;-67
2023/12/01 00:20:32;;;;;;;;;;;;;;;20.07;38.44;99879.75;2069096;28;2053;-67
2023/12/01 00:21:34;;;;;;;;;;;;;;;20.08;38.37;99877.59;2070450;28;2080;-67
2023/12/01 00:22:35;;;;;;;;;;;;;;;20.07;38.51;99885.50;2070405;28;2061;-67
2023/12/01 00:23:36;;;;;;;;;;;;;;;20.07;38.31;99885.50;2068269;28;2033;-67
2023/12/01 00:24:38;;;;;;;;;;;;;;;20.08;38.47;99883.34;2068630;28;2103;-66
2023/12/01 00:25:39;;;;;;;;;;;;;;;20.07;38.40;99879.75;2069377;28;2004;-67
2023/12/01 00:26:41;;;;;;;;;;;;;;;20.08;38.56;99880.47;2070721;28;2026;-67
2023/12/01 00:27:42;;;;;;;;;;;;;;;20.08;38.49;99884.06;2069028;28;1994;-67
2023/12/01 00:28:44;;;;;;;;;;;;;;;20.09;38.46;99884.84;2070684;28;2386;-67
2023/12/01 00:29:45;;;;;;;;;;;;;;;20.09;38.49;99888.44;2068501;28;2070;-67
2023/12/01 00:30:46;;;;;;;;;;;;;;;20.09;38.38;99894.19;2067148;28;6421;-67
2023/12/01 00:31:48;;;;;;;;;;;;;;;20.08;38.39;99892.69;2068494;28;2367;-67
2023/12/01 00:32:49;;;;;;;;;;;;;;;20.09;38.38;99894.19;2069107;28;2339;-67
2023/12/01 00:33:51;;;;;;;;;;;;;;;20.09;38.35;99891.31;2068687;28;2308;-67
2023/12/01 00:34:52;;;;;;;;;;;;;;;20.11;38.48;99884.13;2071298;28;2221;-67
2023/12/01 00:35:54;;;;;;;;;;;;;;;20.09;38.42;99888.44;2071222;28;2083;-67
2023/12/01 00:36:55;;;;;;;;;;;;;;;20.09;38.59;99882.69;2067763;28;2097;-67
2023/12/01 00:37:57;;;;;;;;;;;;;;;20.11;38.53;99895.63;2069202;28;2182;-67
2023/12/01 00:38:58;;;;;;;;;;;;;;;20.08;38.65;99889.81;2071223;28;2304;-67
2023/12/01 00:39:59;;;;;;;;;;;;;;;20.09;38.39;99893.44;2069808;28;2347;-67
2023/12/01 00:41:01;;;;;;;;;;;;;;;20.09;38.45;99894.19;2067763;28;2502;-70
2023/12/01 00:42:03;;;;;;;;;;;;;;;20.09;38.41;99888.44;2069474;28;1962;-65
2023/12/01 00:43:04;;;;;;;;;;;;;;;20.11;38.47;99889.88;2067091;28;2152;-65
2023/12/01 00:44:06;;;;;;;;;;;;;;;20.10;38.41;99894.91;2069205;28;2094;-65
2023/12/01 00:45:08;;;;;;;;;;;;;;;20.09;38.56;99894.19;2069818;28;2151;-65
2023/12/01 00:46:09;;;;;;;;;;;;;;;20.08;38.48;99892.69;2070045;28;2387;-65
2023/12/01 00:47:11;;;;;;;;;;;;;;;20.08;38.52;99892.69;2070406;28;1983;-65
2023/12/01 00:48:12;;;;;;;;;;;;;;;20.09;38.65;99893.44;2068857;28;2030;-65
2023/12/01 00:49:14;;;;;;;;;;;;;;;20.08;38.50;99894.84;2070244;28;1982;-65
2023/12/01 00:50:15;;;;;;;;;;;;;;;20.07;38.60;99896.25;2068561;28;2280;-65
2023/12/01 00:51:17;;;;;;;;;;;;;;;20.07;38.47;99894.13;2069836;28;2046;-65
2023/12/01 00:52:18;;;;;;;;;;;;;;;20.07;38.53;99894.13;2069981;28;2050;-65
2023/12/01 00:53:20;;;;;;;;;;;;;;;20.07;38.39;99894.13;2070155;28;2188;-65
2023/12/01 00:54:21;;;;;;;;;;;;;;;20.07;38.42;99902.72;2067046;28;1991;-65
2023/12/01 00:55:23;;;;;;;;;;;;;;;20.07;38.39;99891.25;2070507;28;2100;-65
2023/12/01 00:56:24;;;;;;;;;;;;;;;20.07;38.53;99899.84;2069202;28;2427;-65
2023/12/01 00:57:25;;;;;;;;;;;;;;;20.06;38.63;99895.50;2070543;28;2281;-65
2023/12/01 00:58:27;;;;;;;;;;;;;;;20.06;38.55;99898.38;2067766;28;1965;-65
2023/12/01 00:59:28;;;;;;;;;;;;;;;20.08;38.50;99904.19;2069440;28;2073;-65
2023/12/01 01:00:30;;;;;;;;;;;;;;;20.08;38.47;99898.44;2067913;28;6016;-65
2023/12/01 01:01:33;;;;;;;;;;;;;;;20.08;38.52;99912.81;2069803;28;2387;-64
2023/12/01 01:02:34;;;;;;;;;;;;;;;20.08;38.44;99909.94;2069470;28;2033;-65
2023/12/01 01:03:36;;;;;;;;;;;;;;;20.08;38.51;99909.94;2068009;28;2093;-65
2023/12/01 01:04:37;;;;;;;;;;;;;;;20.08;38.61;99909.22;2068714;28;2096;-65
2023/12/01 01:05:39;;;;;;;;;;;;;;;20.08;38.61;99909.22;2066656;28;2080;-65
2023/12/01 01:06:40;;;;;;;;;;;;;;;20.07;38.53;99905.59;2070545;28;1974;-64
2023/12/01 01:07:42;;;;;;;;;;;;;;;20.09;38.55;99913.56;2068941;28;2109;-65
2023/12/01 01:08:43;;;;;;;;;;;;;;;20.09;38.57;99908.56;2066336;28;2097;-65
2023/12/01 01:09:45;;;;;;;;;;;;;;;20.08;38.46;99898.44;2067287;28;2017;-65
2023/12/01 01:10:46;;;;;;;;;;;;;;;20.09;38.61;99902.81;2070430;28;2025;-64
2023/12/01 01:11:48;;;;;;;;;;;;;;;20.09;38.65;99899.94;2068810;28;2033;-65
2023/12/01 01:12:49;;;;;;;;;;;;;;;20.09;38.65;99905.69;2068473;28;2025;-65
2023/12/01 01:13:50;;;;;;;;;;;;;;;20.11;38.50;99912.88;2069504;28;2266;-66
2023/12/01 01:14:52;;;;;;;;;;;;;;;20.10;38.52;99900.66;2068909;28;2018;-65
2023/12/01 01:15:53;;;;;;;;;;;;;;;20.10;38.56;99912.16;2070327;28;2058;-65
2023/12/01 01:16:55;;;;;;;;;;;;;;;20.09;38.55;99911.41;2068536;28;2037;-66
2023/12/01 01:17:56;;;;;;;;;;;;;;;20.09;38.49;99908.56;2065942;28;2161;-65
2023/12/01 01:18:58;;;;;;;;;;;;;;;20.09;38.56;99914.28;2070276;28;2038;-66
2023/12/01 01:19:59;;;;;;;;;;;;;;;20.09;38.52;99916.44;2068798;28;2030;-65
2023/12/01 01:21:01;;;;;;;;;;;;;;;20.08;38.60;99918.56;2068768;28;2038;-65
2023/12/01 01:22:02;;;;;;;;;;;;;;;20.09;38.59;99922.91;2068073;28;2026;-65
2023/12/01 01:23:04;;;;;;;;;;;;;;;20.09;38.63;99916.44;2069779;28;2046;-65
2023/12/01 01:24:05;;;;;;;;;;;;;;;20.07;38.64;99917.09;2069451;28;2053;-65
2023/12/01 01:25:06;;;;;;;;;;;;;;;20.07;38.67;99914.22;2067587;28;2254;-65
2023/12/01 01:26:08;;;;;;;;;;;;;;;20.07;38.59;99917.09;2069176;28;1998;-65
2023/12/01 01:27:09;;;;;;;;;;;;;;;20.07;38.53;99916.38;2068667;28;2081;-65
2023/12/01 01:28:11;;;;;;;;;;;;;;;20.07;38.46;99919.97;2068105;28;2084;-65
2023/12/01 01:29:13;;;;;;;;;;;;;;;20.06;38.59;99912.75;2070066;28;2276;-65
2023/12/01 01:30:14;;;;;;;;;;;;;;;20.06;38.43;99918.50;2067895;28;6047;-65
2023/12/01 01:31:15;;;;;;;;;;;;;;;20.06;38.63;99918.50;2066778;28;2253;-65
2023/12/01 01:32:17;;;;;;;;;;;;;;;20.06;38.54;99918.50;2066726;28;2093;-65
2023/12/01 01:33:19;;;;;;;;;;;;;;;20.06;38.42;99912.75;2066032;28;1982;-65
2023/12/01 01:34:20;;;;;;;;;;;;;;;20.06;38.58;99909.13;2068401;28;2237;-65
2023/12/01 01:35:25;;;;;;;;;;;;;;;20.06;38.52;99912.75;2067613;28;2081;-65
2023/12/01 01:36:26;;;;;;;;;;;;;;;20.06;38.57;99918.50;2069759;28;2011;-65
2023/12/01 01:37:27;;;;;;;;;;;;;;;20.07;38.60;99916.38;2066325;28;1954;-65
2023/12/01 01:38:29;;;;;;;;;;;;;;;20.06;38.60;99924.25;2067652;28;2248;-65
2023/12/01 01:39:31;;;;;;;;;;;;;;;20.05;38.49;99917.03;2067390;28;2005;-64
2023/12/01 01:40:32;;;;;;;;;;;;;;;20.06;38.60;99914.88;2068628;28;2049;-65
2023/12/01 01:41:35;;;;;;;;;;;;;;;20.04;38.65;99918.44;2068350;28;2348;-65
2023/12/01 01:42:36;;;;;;;;;;;;;;;20.05;38.54;99914.16;2066110;28;2100;-65
2023/12/01 01:43:37;;;;;;;;;;;;;;;20.06;38.65;99918.50;2068783;28;2132;-65
2023/12/01 01:44:39;;;;;;;;;;;;;;;20.06;38.61;99906.25;2068177;28;2249;-66
2023/12/01 01:45:40;;;;;;;;;;;;;;;20.06;38.64;99918.50;2067842;28;2097;-66
2023/12/01 01:46:42;;;;;;;;;;;;;;;20.06;38.58;99918.50;2068617;28;2006;-65
2023/12/01 01:47:43;;;;;;;;;;;;;;;20.06;38.69;99921.38;2068675;28;2025;-65
2023/12/01 01:48:45;;;;;;;;;;;;;;;20.08;38.63;99920.72;2069138;28;2085;-65
2023/12/01 01:49:46;;;;;;;;;;;;;;;20.07;38.65;99922.84;2066139;28;2033;-65
2023/12/01 01:50:48;;;;;;;;;;;;;;;20.07;38.77;99919.25;2069091;28;1982;-66
2023/12/01 01:51:50;;;;;;;;;;;;;;;20.07;38.53;99916.38;2069186;28;2073;-65
2023/12/01 01:52:52;;;;;;;;;;;;;;;20.08;38.69;99917.84;2069579;28;2037;-65
2023/12/01 01:53:54;;;;;;;;;;;;;;;20.07;38.75;99914.22;2069916;28;2045;-65
2023/12/01 01:54:56;;;;;;;;;;;;;;;20.08;38.55;99917.84;2069666;28;2101;-65
2023/12/01 01:55:58;;;;;;;;;;;;;;;20.07;38.54;99913.50;2067282;28;2042;-65
2023/12/01 01:57:00;;;;;;;;;;;;;;;20.06;38.76;99912.00;2070029;28;2088;-65
2023/12/01 01:58:01;;;;;;;;;;;;;;;20.08;38.70;99914.97;2067724;28;2013;-65
2023/12/01 01:59:03;;;;;;;;;;;;;;;20.07;38.62;99914.22;2069172;28;1846;-65
2023/12/01 02:00:05;;;;;;;;;;;;;;;20.07;38.59;99914.22;2069286;28;6280;-65
2023/12/01 02:01:07;;;;;;;;;;;;;;;20.06;38.54;99918.50;2068121;28;2058;-65
2023/12/01 02:02:09;;;;;;;;;;;;;;;20.06;38.58;99917.75;2065675;28;2364;-65
2023/12/01 02:03:11;;;;;;;;;;;;;;;20.05;38.68;99911.28;2068384;28;2178;-65
2023/12/01 02:04:12;;;;;;;;;;;;;;;20.05;38.54;99911.28;2067009;28;2089;-65
2023/12/01 02:05:14;;;;;;;;;;;;;;;20.04;38.53;99915.56;2065251;28;2089;-65
2023/12/01 02:06:15;;;;;;;;;;;;;;;20.05;38.54;99910.56;2067795;28;2077;-65
2023/12/01 02:07:24;;;;;;;;;;;;;;;20.05;38.55;99911.28;2068349;28;2101;-65
2023/12/01 02:08:26;;;;;;;;;;;;;;;20.05;38.55;99914.16;2069393;28;2026;-65
2023/12/01 02:09:31;;;;;;;;;;;;;;;20.05;38.58;99911.28;2068088;28;2233;-65
2023/12/01 02:10:34;;;;;;;;;;;;;;;20.05;38.70;99907.69;2069239;28;2058;-65
2023/12/01 02:11:37;;;;;;;;;;;;;;;20.03;38.62;99899.72;2067129;28;2038;-65
2023/12/01 02:12:38;;;;;;;;;;;;;;;20.02;38.62;99906.88;2068136;28;1959;-65
2023/12/01 02:13:40;;;;;;;;;;;;;;;20.04;38.60;99914.81;2070292;28;2029;-65
2023/12/01 02:14:41;;;;;;;;;;;;;;;20.04;38.78;99915.56;2067452;28;2014;-65
2023/12/01 02:15:43;;;;;;;;;;;;;;;20.05;38.66;99914.16;2067743;28;2038;-65
2023/12/01 02:16:47;;;;;;;;;;;;;;;20.05;38.53;99913.44;2069686;28;2423;-65
2023/12/01 02:17:48;;;;;;;;;;;;;;;20.05;38.51;99925.66;2069365;28;2097;-65
2023/12/01 02:18:54;;;;;;;;;;;;;;;20.06;38.57;99912.00;2068340;28;2307;-65
2023/12/01 02:19:55;;;;;;;;;;;;;;;20.04;38.67;99909.06;2069646;28;2051;-65
2023/12/01 02:20:57;;;;;;;;;;;;;;;20.04;38.79;99906.97;2068676;28;2411;-65
2023/12/01 02:21:58;;;;;;;;;;;;;;;20.05;38.66;99913.44;2069019;28;2039;-65
2023/12/01 02:23:03;;;;;;;;;;;;;;;20.05;38.60;99905.53;2069248;28;2295;-65
2023/12/01 02:24:04;;;;;;;;;;;;;;;20.05;38.72;99911.28;2067459;28;2201;-65
2023/12/01 02:25:06;;;;;;;;;;;;;;;20.05;38.72;99904.81;2069288;28;2192;-66
2023/12/01 02:26:09;;;;;;;;;;;;;;;20.06;38.71;99904.13;2069984;28;2118;-65
2023/12/01 02:27:11;;;;;;;;;;;;;;;20.06;38.66;99906.25;2066960;28;2181;-64
2023/12/01 02:28:13;;;;;;;;;;;;;;;20.06;38.80;99912.75;2067622;28;1943;-65
2023/12/01 02:29:14;;;;;;;;;;;;;;;20.06;38.63;99907.00;2068170;28;2124;-65
2023/12/01 02:30:15;;;;;;;;;;;;;;;20.06;38.70;99914.88;2068913;28;6235;-65
2023/12/01 02:31:17;;;;;;;;;;;;;;;20.05;38.81;99914.16;2065895;28;1986;-65
2023/12/01 02:32:18;;;;;;;;;;;;;;;20.05;38.61;99917.03;2068162;28;2006;-65
2023/12/01 02:33:20;;;;;;;;;;;;;;;20.05;38.72;99922.78;2065406;28;2053;-65
2023/12/01 02:34:21;;;;;;;;;;;;;;;20.06;38.71;99917.75;2067859;28;2072;-65
2023/12/01 02:35:24;;;;;;;;;;;;;;;20.04;38.70;99927.06;2067602;28;2185;-65
2023/12/01 02:36:25;;;;;;;;;;;;;;;20.03;38.65;99914.09;2068834;28;2125;-65
2023/12/01 02:37:26;;;;;;;;;;;;;;;20.04;38.66;99927.06;2069574;28;2022;-65
2023/12/01 02:38:28;;;;;;;;;;;;;;;20.04;38.76;99927.06;2068750;28;2165;-65
2023/12/01 02:39:29;;;;;;;;;;;;;;;20.02;38.77;99924.13;2069064;28;2037;-65
2023/12/01 02:40:31;;;;;;;;;;;;;;;20.01;38.72;99922.63;2068653;28;2224;-65
2023/12/01 02:41:32;;;;;;;;;;;;;;;20.01;38.58;99924.78;2070065;28;2102;-65
2023/12/01 02:42:34;;;;;;;;;;;;;;;20.01;38.79;99919.03;2065687;28;2178;-65
2023/12/01 02:43:35;;;;;;;;;;;;;;;20.00;38.81;99929.81;2065520;28;2150;-65
2023/12/01 02:44:36;;;;;;;;;;;;;;;20.00;38.66;99924.06;2066456;28;1978;-65
2023/12/01 02:45:38;;;;;;;;;;;;;;;20.00;38.74;99921.19;2068617;28;2084;-65
2023/12/01 02:46:39;;;;;;;;;;;;;;;20.00;38.85;99921.19;2066668;28;2101;-65
2023/12/01 02:47:43;;;;;;;;;;;;;;;20.00;38.76;99918.31;2066080;28;2101;-65
2023/12/01 02:48:44;;;;;;;;;;;;;;;20.00;38.69;99915.44;2067180;28;2090;-65
2023/12/01 02:49:46;;;;;;;;;;;;;;;20.01;38.67;99916.91;2066707;28;2049;-65
2023/12/01 02:50:47;;;;;;;;;;;;;;;20.02;38.67;99920.50;2069380;28;2119;-65
2023/12/01 02:51:49;;;;;;;;;;;;;;;20.02;38.80;99912.63;2069104;28;2184;-65
2023/12/01 02:52:50;;;;;;;;;;;;;;;20.02;38.77;99918.38;2069083;28;2057;-65
2023/12/01 02:53:51;;;;;;;;;;;;;;;20.02;38.67;99918.38;2067948;28;2014;-65
2023/12/01 02:54:53;;;;;;;;;;;;;;;20.01;38.70;99914.03;2068064;28;2112;-65
2023/12/01 02:55:54;;;;;;;;;;;;;;;20.02;38.72;99911.88;2068565;28;2018;-65
2023/12/01 02:56:56;;;;;;;;;;;;;;;20.02;38.86;99909.75;2068031;28;2038;-65
2023/12/01 02:57:57;;;;;;;;;;;;;;;20.02;38.83;99906.88;2068618;28;2082;-65
2023/12/01 02:58:58;;;;;;;;;;;;;;;20.02;38.73;99918.38;2066006;28;2140;-65
2023/12/01 03:00:00;;;;;;;;;;;;;;;20.02;38.73;99912.63;2066744;28;2017;-65
2023/12/01 03:01:03;;;;;;;;;;;;;;;20.02;38.71;99918.38;2067093;28;6543;-65
2023/12/01 03:02:04;;;;;;;;;;;;;;;20.03;38.74;99913.38;2069699;28;2125;-65
2023/12/01 03:03:06;;;;;;;;;;;;;;;20.03;38.73;99919.09;2069300;28;2065;-65
2023/12/01 03:04:07;;;;;;;;;;;;;;;20.03;38.73;99919.84;2069687;28;2324;-65
2023/12/01 03:05:09;;;;;;;;;;;;;;;20.05;38.56;99916.31;2067855;28;2036;-65
2023/12/01 03:06:10;;;;;;;;;;;;;;;20.04;38.80;99926.31;2067365;28;1967;-65
2023/12/01 03:07:12;;;;;;;;;;;;;;;20.05;38.72;99922.06;2069104;28;2077;-65
2023/12/01 03:08:13;;;;;;;;;;;;;;;20.05;38.61;99924.94;2068250;28;2041;-65
2023/12/01 03:09:16;;;;;;;;;;;;;;;20.04;38.54;99927.06;2069329;28;1998;-66
2023/12/01 03:10:18;;;;;;;;;;;;;;;20.05;38.69;99922.78;2068027;28;2042;-65
2023/12/01 03:11:24;;;;;;;;;;;;;;;20.04;38.71;99927.06;2066877;28;1939;-65
2023/12/01 03:12:25;;;;;;;;;;;;;;;20.04;38.86;99929.94;2069394;28;1970;-65
2023/12/01 03:13:27;;;;;;;;;;;;;;;20.05;38.76;99927.81;2069801;28;1979;-65
2023/12/01 03:14:28;;;;;;;;;;;;;;;20.03;38.68;99919.84;2067745;28;2049;-65
2023/12/01 03:15:30;;;;;;;;;;;;;;;20.02;38.59;99921.25;2069114;28;2045;-65
2023/12/01 03:16:31;;;;;;;;;;;;;;;20.02;38.67;99929.88;2071084;28;2018;-65
2023/12/01 03:17:33;;;;;;;;;;;;;;;20.01;38.65;99925.50;2069353;28;2058;-65
2023/12/01 03:18:35;;;;;;;;;;;;;;;20.02;38.65;99927.00;2067362;28;2017;-65
2023/12/01 03:19:37;;;;;;;;;;;;;;;20.01;38.74;99922.63;2066344;28;2002;-65
2023/12/01 03:20:38;;;;;;;;;;;;;;;20.00;38.59;99932.69;2067203;28;6124;-65
2023/12/01 03:21:39;;;;;;;;;;;;;;;20.00;38.61;99932.69;2069681;28;1967;-65
2023/12/01 03:22:42;;;;;;;;;;;;;;;20.01;38.61;99933.41;2071260;28;2092;-65
2023/12/01 03:23:43;;;;;;;;;;;;;;;20.01;38.73;99944.91;2071311;28;1912;-65
2023/12/01 03:24:47;;;;;;;;;;;;;;;20.00;38.70;99941.31;2069572;28;2022;-65
2023/12/01 03:25:48;;;;;;;;;;;;;;;19.99;38.58;99939.81;2071102;28;2021;-65
2023/12/01 03:26:50;;;;;;;;;;;;;;;20.00;38.58;99944.19;2069499;28;1990;-64
2023/12/01 03:27:51;;;;;;;;;;;;;;;20.00;38.69;99937.69;2070487;28;2061;-65
2023/12/01 03:28:52;;;;;;;;;;;;;;;20.00;38.71;99938.44;2069238;28;2065;-65
2023/12/01 03:29:54;;;;;;;;;;;;;;;20.01;38.76;99956.41;2068560;28;2136;-65
2023/12/01 03:30:55;;;;;;;;;;;;;;;20.00;38.71;99944.19;2066930;28;6073;-65
2023/12/01 03:31:57;;;;;;;;;;;;;;;20.00;38.63;99952.78;2070295;28;2037;-65
2023/12/01 03:32:58;;;;;;;;;;;;;;;20.00;38.76;99946.31;2070416;28;1986;-65
2023/12/01 03:34:01;;;;;;;;;;;;;;;20.00;38.80;99944.19;2070497;28;2006;-65
2023/12/01 03:35:02;;;;;;;;;;;;;;;20.00;38.72;99949.91;2068624;28;2068;-65
2023/12/01 03:36:04;;;;;;;;;;;;;;;20.02;38.79;99954.97;2066858;28;2496;-65
2023/12/01 03:37:05;;;;;;;;;;;;;;;20.01;38.65;99942.75;2070196;28;2096;-65
2023/12/01 03:38:06;;;;;;;;;;;;;;;20.01;38.65;99951.38;2070768;28;2442;-65
2023/12/01 03:39:09;;;;;;;;;;;;;;;20.02;38.59;99944.25;2071055;28;2113;-65
2023/12/01 03:40:12;;;;;;;;;;;;;;;20.02;38.71;99952.09;2070281;28;1998;-65
2023/12/01 03:41:15;;;;;;;;;;;;;;;20.01;38.69;99944.91;2069671;28;2157;-65
2023/12/01 03:42:16;;;;;;;;;;;;;;;20.02;38.67;99952.88;2068471;28;2120;-65
2023/12/01 03:43:18;;;;;;;;;;;;;;;20.03;38.70;99953.59;2068082;28;2426;-65
2023/12/01 03:44:19;;;;;;;;;;;;;;;20.02;38.71;99955.75;2070059;28;2284;-66
2023/12/01 03:45:21;;;;;;;;;;;;;;;20.02;39.08;99950.00;2068810;28;2195;-65
2023/12/01 03:46:22;;;;;;;;;;;;;;;20.04;38.76;99955.81;2068949;28;2102;-65
2023/12/01 03:47:24;;;;;;;;;;;;;;;20.04;38.79;99955.81;2068759;28;2022;-65
2023/12/01 03:48:25;;;;;;;;;;;;;;;20.04;38.69;99961.56;2067762;28;1994;-65
2023/12/01 03:49:27;;;;;;;;;;;;;;;20.04;38.73;99952.94;2069260;28;2034;-65
2023/12/01 03:50:29;;;;;;;;;;;;;;;20.04;38.74;99961.56;2070078;28;2137;-65
2023/12/01 03:51:30;;;;;;;;;;;;;;;20.06;38.59;99964.47;2067582;28;2026;-64
2023/12/01 03:52:32;;;;;;;;;;;;;;;20.05;38.72;99960.13;2068019;28;2002;-65
2023/12/01 03:53:33;;;;;;;;;;;;;;;20.05;38.90;99962.28;2070139;28;2006;-65
2023/12/01 03:54:35;;;;;;;;;;;;;;;20.05;38.63;99965.88;2068765;28;2059;-65
2023/12/01 03:55:36;;;;;;;;;;;;;;;20.05;38.65;99963.00;2070070;28;2041;-65
2023/12/01 03:56:38;;;;;;;;;;;;;;;20.05;38.64;99960.13;2068176;28;2311;-65
2023/12/01 03:57:39;;;;;;;;;;;;;;;20.05;38.69;99954.41;2071051;28;2081;-65
2023/12/01 03:58:41;;;;;;;;;;;;;;;20.06;38.72;99960.88;2067930;28;2210;-65
2023/12/01 03:59:42;;;;;;;;;;;;;;;20.06;38.76;99960.88;2069112;28;2129;-65
2023/12/01 04:00:44;;;;;;;;;;;;;;;20.06;38.68;99964.47;2070363;28;6148;-65
2023/12/01 04:01:45;;;;;;;;;;;;;;;20.07;38.64;99965.22;2068441;28;2057;-65
2023/12/01 04:02:47;;;;;;;;;;;;;;;20.07;38.63;99959.47;2068101;28;2156;-65
2023/12/01 04:03:49;;;;;;;;;;;;;;;20.06;38.66;99964.47;2069854;28;2014;-65
2023/12/01 04:04:50;;;;;;;;;;;;;;;20.07;38.61;99960.22;2067117;28;2069;-65
2023/12/01 04:05:52;;;;;;;;;;;;;;;20.06;38.81;99964.47;2070265;28;2339;-65
2023/12/01 04:06:54;;;;;;;;;;;;;;;20.07;38.80;99960.22;2070334;28;1970;-65
2023/12/01 04:07:55;;;;;;;;;;;;;;;20.07;38.61;99963.09;2069150;28;2059;-65
2023/12/01 04:09:00;;;;;;;;;;;;;;;20.07;38.64;99965.97;2066523;28;2026;-65
2023/12/01 04:10:01;;;;;;;;;;;;;;;20.08;38.64;99961.66;2069254;28;2013;-65
2023/12/01 04:11:03;;;;;;;;;;;;;;;20.08;38.87;99967.41;2069073;28;2269;-66
2023/12/01 04:12:05;;;;;;;;;;;;;;;20.08;38.64;99961.66;2067102;28;2163;-65
2023/12/01 04:13:09;;;;;;;;;;;;;;;20.10;38.68;99969.63;2066531;28;2030;-65
2023/12/01 04:14:10;;;;;;;;;;;;;;;20.09;38.81;99962.44;2069886;28;1958;-65
2023/12/01 04:15:15;;;;;;;;;;;;;;;20.08;38.62;99973.16;2070841;28;2323;-65
2023/12/01 04:16:17;;;;;;;;;;;;;;;20.10;38.80;99963.88;2067751;28;2096;-65
2023/12/01 04:17:21;;;;;;;;;;;;;;;20.09;38.75;99963.16;2070822;28;2002;-65
2023/12/01 04:18:22;;;;;;;;;;;;;;;20.09;38.63;99954.53;2070451;28;1966;-65
2023/12/01 04:19:24;;;;;;;;;;;;;;;20.09;38.63;99966.03;2069707;28;2238;-65
2023/12/01 04:20:25;;;;;;;;;;;;;;;20.11;38.74;99967.50;2067182;28;1962;-65
2023/12/01 04:21:28;;;;;;;;;;;;;;;20.11;38.67;99971.09;2067297;28;2092;-64
2023/12/01 04:22:29;;;;;;;;;;;;;;;20.11;38.72;99961.75;2066210;28;2037;-65
2023/12/01 04:23:31;;;;;;;;;;;;;;;20.12;38.74;99957.47;2067893;28;1967;-65
2023/12/01 04:24:33;;;;;;;;;;;;;;;20.11;38.68;99965.34;2066617;28;2030;-65
2023/12/01 04:25:35;;;;;;;;;;;;;;;20.12;38.74;99966.09;2069394;28;2002;-65
2023/12/01 04:26:37;;;;;;;;;;;;;;;20.12;38.72;99960.34;2069167;28;2358;-65
2023/12/01 04:27:38;;;;;;;;;;;;;;;20.12;38.76;99963.22;2065300;28;2017;-65
2023/12/01 04:28:40;;;;;;;;;;;;;;;20.13;38.63;99964.69;2067011;28;2025;-65
2023/12/01 04:29:41;;;;;;;;;;;;;;;20.12;38.53;99963.22;2068922;28;2148;-65
2023/12/01 04:30:42;;;;;;;;;;;;;;;20.13;38.78;99968.28;2068181;28;6304;-65
2023/12/01 04:31:44;;;;;;;;;;;;;;;20.13;38.65;99959.66;2065999;28;2140;-65
2023/12/01 04:33:00;;;;;;;;;;;;;;;20.13;38.88;99956.78;2066160;28;2051;-65
2023/12/01 04:34:02;;;;;;;;;;;;;;;20.13;38.70;99959.66;2068532;28;2312;-65
2023/12/01 04:35:03;;;;;;;;;;;;;;;20.13;38.64;99956.06;2069516;28;2256;-65
2023/12/01 04:36:06;;;;;;;;;;;;;;;20.13;38.69;99951.03;2067658;28;2041;-65
2023/12/01 04:37:09;;;;;;;;;;;;;;;20.14;38.62;99957.53;2068787;28;1987;-65
2023/12/01 04:38:11;;;;;;;;;;;;;;;20.15;38.58;99956.13;2067286;28;1998;-65
2023/12/01 04:39:14;;;;;;;;;;;;;;;20.14;38.79;99964.03;2070962;28;2026;-65
2023/12/01 04:40:15;;;;;;;;;;;;;;;20.15;38.70;99959.00;2067680;28;1974;-65
2023/12/01 04:41:17;;;;;;;;;;;;;;;20.15;38.59;99953.25;2070002;28;2007;-65
2023/12/01 04:42:18;;;;;;;;;;;;;;;20.14;38.76;99957.53;2068754;28;2025;-65
2023/12/01 04:43:20;;;;;;;;;;;;;;;20.15;38.58;99961.88;2068270;28;2120;-65
2023/12/01 04:44:21;;;;;;;;;;;;;;;20.14;38.68;99964.03;2068610;28;2121;-65
2023/12/01 04:45:24;;;;;;;;;;;;;;;20.15;38.90;99959.72;2069761;28;1922;-65
2023/12/01 04:46:26;;;;;;;;;;;;;;;20.15;38.76;99962.59;2069612;28;2018;-64
2023/12/01 04:47:28;;;;;;;;;;;;;;;20.16;38.67;99966.22;2068280;28;2037;-65
2023/12/01 04:48:29;;;;;;;;;;;;;;;20.16;38.65;99966.97;2068938;28;2183;-65
2023/12/01 04:49:30;;;;;;;;;;;;;;;20.16;38.66;99964.09;2069371;28;2101;-65
2023/12/01 04:50:33;;;;;;;;;;;;;;;20.17;38.68;99970.56;2069502;28;1970;-65
2023/12/01 04:51:35;;;;;;;;;;;;;;;20.16;38.80;99969.84;2068512;28;2049;-65
2023/12/01 04:52:37;;;;;;;;;;;;;;;20.18;38.69;99972.03;2070492;28;2006;-65
2023/12/01 04:53:38;;;;;;;;;;;;;;;20.18;38.84;99972.03;2069280;28;1938;-65
2023/12/01 04:54:40;;;;;;;;;;;;;;;20.19;38.63;99970.63;2068212;28;2044;-65
2023/12/01 04:55:41;;;;;;;;;;;;;;;20.19;38.72;99967.75;2069424;28;2071;-65
2023/12/01 04:56:43;;;;;;;;;;;;;;;20.18;38.69;99972.03;2068507;28;2241;-65
2023/12/01 04:57:45;;;;;;;;;;;;;;;20.17;38.76;99971.31;2066402;28;2180;-65
2023/12/01 04:58:46;;;;;;;;;;;;;;;20.18;38.70;99972.03;2069181;28;2427;-65
2023/12/01 04:59:47;;;;;;;;;;;;;;;20.18;38.81;99975.66;2069092;28;2010;-65
2023/12/01 05:00:49;;;;;;;;;;;;;;;20.18;38.72;99977.78;2069163;28;6078;-65
2023/12/01 05:01:50;;;;;;;;;;;;;;;20.19;38.70;99979.25;2068224;28;2256;-65
2023/12/01 05:02:53;;;;;;;;;;;;;;;20.18;38.70;99974.91;2069614;28;2113;-65
2023/12/01 05:03:54;;;;;;;;;;;;;;;20.18;38.85;99972.78;2069344;28;2014;-65
2023/12/01 05:04:59;;;;;;;;;;;;;;;20.19;38.70;99970.63;2069516;28;1976;-65
2023/12/01 05:06:00;;;;;;;;;;;;;;;20.19;38.74;99973.50;2068815;28;2093;-65
2023/12/01 05:07:02;;;;;;;;;;;;;;;20.18;38.91;99969.91;2064730;28;2041;-65
2023/12/01 05:08:04;;;;;;;;;;;;;;;20.18;38.72;99964.16;2065364;28;1971;-65
2023/12/01 05:09:16;;;;;;;;;;;;;;;20.19;38.87;99964.88;2069138;28;2034;-65
2023/12/01 05:10:22;;;;;;;;;;;;;;;20.19;38.91;99964.88;2070478;28;2292;-65
2023/12/01 05:11:23;;;;;;;;;;;;;;;20.18;38.85;99969.91;2070655;28;1730;-65
2023/12/01 05:12:24;;;;;;;;;;;;;;;20.17;38.94;99976.31;2068757;28;2033;-65
2023/12/01 05:13:26;;;;;;;;;;;;;;;20.19;38.78;99973.50;2068986;28;2133;-65
2023/12/01 05:14:27;;;;;;;;;;;;;;;20.18;38.80;99975.66;2069919;28;2025;-65
2023/12/01 05:15:29;;;;;;;;;;;;;;;20.18;38.75;99974.91;2069269;28;2033;-64
2023/12/01 05:16:30;;;;;;;;;;;;;;;20.19;38.72;99976.38;2069330;28;2025;-65
2023/12/01 05:17:32;;;;;;;;;;;;;;;20.20;39.09;99969.97;2068076;28;2283;-66
2023/12/01 05:18:33;;;;;;;;;;;;;;;20.26;38.87;99975.19;2067638;28;1999;-66
2023/12/01 05:19:34;;;;;;;;;;;;;;;20.23;38.94;99970.78;2070212;28;1957;-67
2023/12/01 05:20:36;;;;;;;;;;;;;;;20.23;38.81;99970.78;2067853;28;1954;-66
2023/12/01 05:21:37;;;;;;;;;;;;;;;20.23;38.71;99971.50;2067364;28;2115;-66
2023/12/01 05:22:39;;;;;;;;;;;;;;;20.23;38.71;99976.53;2069497;28;1914;-66
2023/12/01 05:23:40;;;;;;;;;;;;;;;20.22;38.75;99975.78;2061069;28;4820;-66
2023/12/01 05:24:42;;;;;;;;;;;;;;;20.23;38.65;99985.16;2069357;28;1853;-66
2023/12/01 05:25:44;;;;;;;;;;;;;;;20.23;38.72;99979.41;2070963;28;1639;-66